PHENX84 NZNE-NZKK
Flight info
| Callsign | PHENX84 |
|---|---|
| Flight time | N/A |
| Altitude | 2000 |
| Route | MHED1 DCT BHEAD DCT OPON1 DCT PQURY |
| Aircraft | C172/L-SFG/C |
Departure
| Time | 2026-04-11 11:38 |
|---|---|
| Airport | North Shore Aerodrome (NZNE) |
Arrival
| Time | N/A |
|---|---|
| Airport | Kerikeri Airport (NZKK) |
| Time | Latitude | Longitude | Altitude | Speed | Heading |
|---|---|---|---|---|---|
| 2026-04-11 11:17 | -36.65747 | 174.65496 | 200 ft | 0 kts | 148° |
| 2026-04-11 11:21 | -36.65749 | 174.65497 | 197 ft | 2 kts | 170° |
| 2026-04-11 11:22 | -36.65756 | 174.65485 | 203 ft | 0 kts | 258° |
| 2026-04-11 11:22 | -36.65760 | 174.65473 | 195 ft | 6 kts | 248° |
| 2026-04-11 11:22 | -36.65813 | 174.65392 | 199 ft | 15 kts | 226° |
| 2026-04-11 11:23 | -36.65888 | 174.65293 | 197 ft | 16 kts | 235° |
| 2026-04-11 11:23 | -36.65910 | 174.65261 | 202 ft | 1 kts | 229° |
| 2026-04-11 11:23 | -36.65914 | 174.65251 | 202 ft | 6 kts | 255° |
| 2026-04-11 11:23 | -36.65870 | 174.65235 | 201 ft | 7 kts | 345° |
| 2026-04-11 11:24 | -36.65844 | 174.65233 | 193 ft | 0 kts | 23° |
| 2026-04-11 11:24 | -36.65825 | 174.65243 | 194 ft | 10 kts | 47° |
| 2026-04-11 11:24 | -36.65759 | 174.65333 | 197 ft | 15 kts | 35° |
| 2026-04-11 11:24 | -36.65692 | 174.65353 | 200 ft | 4 kts | 21° |
| 2026-04-11 11:25 | -36.65659 | 174.65382 | 202 ft | 13 kts | 40° |
| 2026-04-11 11:25 | -36.65606 | 174.65442 | 193 ft | 0 kts | 41° |
| 2026-04-11 11:28 | -36.65599 | 174.65448 | 196 ft | 5 kts | 355° |
| 2026-04-11 11:28 | -36.65582 | 174.65391 | 191 ft | 9 kts | 289° |
| 2026-04-11 11:28 | -36.65583 | 174.65353 | 192 ft | 0 kts | 271° |
| 2026-04-11 11:28 | -36.65583 | 174.65351 | 192 ft | 0 kts | 253° |
| 2026-04-11 11:29 | -36.65576 | 174.65365 | 193 ft | 0 kts | 104° |
| 2026-04-11 11:37 | -36.65600 | 174.65473 | 193 ft | 34 kts | 110° |
| 2026-04-11 11:37 | -36.65663 | 174.65878 | 261 ft | 55 kts | 109° |
| 2026-04-11 11:38 | -36.65833 | 174.66395 | 301 ft | 75 kts | 119° |
| 2026-04-11 11:38 | -36.66086 | 174.66890 | 488 ft | 71 kts | 148° |
| 2026-04-11 11:38 | -36.66454 | 174.67290 | 1135 ft | 104 kts | 166° |
| 2026-04-11 11:38 | -36.67071 | 174.66722 | 1103 ft | 93 kts | 173° |
| 2026-04-11 11:39 | -36.67454 | 174.66528 | 1571 ft | 51 kts | 156° |
| 2026-04-11 11:39 | -36.67703 | 174.66601 | 1704 ft | 38 kts | 118° |
| 2026-04-11 11:39 | -36.67529 | 174.66921 | 1922 ft | 67 kts | 26° |
| 2026-04-11 11:39 | -36.66984 | 174.66621 | 1940 ft | 117 kts | 346° |
| 2026-04-11 11:40 | -36.66378 | 174.66462 | 1879 ft | 50 kts | 96° |
| 2026-04-11 11:40 | -36.66218 | 174.66516 | 1688 ft | 104 kts | 284° |
| 2026-04-11 11:40 | -36.65450 | 174.65362 | 958 ft | 162 kts | 333° |
| 2026-04-11 11:40 | -36.64565 | 174.64862 | 1122 ft | 106 kts | 11° |
| 2026-04-11 11:41 | -36.63943 | 174.65108 | 1091 ft | 68 kts | 114° |
| 2026-04-11 11:41 | -36.63783 | 174.64844 | 771 ft | 124 kts | 332° |
| 2026-04-11 11:41 | -36.63277 | 174.63977 | 754 ft | 115 kts | 330° |
| 2026-04-11 11:42 | -36.63107 | 174.63243 | 1139 ft | 74 kts | 179° |
| 2026-04-11 11:42 | -36.63223 | 174.62396 | 1257 ft | 128 kts | 271° |
| 2026-04-11 11:42 | -36.62671 | 174.61425 | 1126 ft | 132 kts | 332° |
| 2026-04-11 11:42 | -36.61857 | 174.60868 | 1357 ft | 128 kts | 4° |
| 2026-04-11 11:43 | -36.61037 | 174.60517 | 815 ft | 139 kts | 300° |
| 2026-04-11 11:43 | -36.60480 | 174.59614 | 920 ft | 131 kts | 314° |
| 2026-04-11 11:43 | -36.59866 | 174.58758 | 857 ft | 116 kts | 343° |
| 2026-04-11 11:43 | -36.59129 | 174.58318 | 900 ft | 135 kts | 355° |
| 2026-04-11 11:44 | -36.58219 | 174.57842 | 904 ft | 180 kts | 310° |
| 2026-04-11 11:44 | -36.58131 | 174.56674 | 1251 ft | 112 kts | 243° |
| 2026-04-11 11:44 | -36.58245 | 174.55942 | 1008 ft | 115 kts | 258° |
| 2026-04-11 11:44 | -36.58226 | 174.54884 | 726 ft | 127 kts | 250° |
| 2026-04-11 11:45 | -36.58479 | 174.53920 | 800 ft | 100 kts | 244° |
| 2026-04-11 11:45 | -36.58841 | 174.53205 | 752 ft | 99 kts | 203° |
| 2026-04-11 11:45 | -36.59357 | 174.52662 | 693 ft | 123 kts | 216° |
| 2026-04-11 11:45 | -36.59655 | 174.51516 | 928 ft | 128 kts | 251° |
| 2026-04-11 11:46 | -36.59538 | 174.50467 | 782 ft | 134 kts | 297° |
| 2026-04-11 11:46 | -36.58879 | 174.49550 | 650 ft | 157 kts | 327° |
| 2026-04-11 11:46 | -36.58135 | 174.48966 | 1181 ft | 126 kts | 357° |
| 2026-04-11 11:46 | -36.57272 | 174.48611 | 1123 ft | 139 kts | 348° |
| 2026-04-11 11:47 | -36.56639 | 174.48386 | 1689 ft | 79 kts | 4° |
| 2026-04-11 11:47 | -36.56619 | 174.47794 | 1180 ft | 84 kts | 223° |
| 2026-04-11 11:47 | -36.56581 | 174.46971 | 553 ft | 156 kts | 350° |
| 2026-04-11 11:47 | -36.55750 | 174.47375 | 958 ft | 115 kts | 44° |
| 2026-04-11 11:48 | -36.55047 | 174.47917 | 493 ft | 125 kts | 52° |
| 2026-04-11 11:48 | -36.54576 | 174.48624 | 671 ft | 102 kts | 74° |
| 2026-04-11 11:48 | -36.54431 | 174.49466 | 871 ft | 88 kts | 100° |
| 2026-04-11 11:48 | -36.54389 | 174.50084 | 1041 ft | 74 kts | 106° |
| 2026-04-11 11:49 | -36.54770 | 174.50463 | 999 ft | 124 kts | 174° |